Mission, Texas
Current Conditions -  °F | °C
As of 11:53 PM on Thursday 30 Oct 2014 (Local Time) from KMFE Reporting Station
Clear Clear  
Wind Chill: 72°   Ceiling: Unl
Heat Index: 72°   Visibility: 10mi
Dew Point: 68°   Wind: 5mph
Humidity: 87%   Direction: 130°SE
Pressure: 30.08"   Gusts: NA
Location:  26.22°N, 98.32°W
Report Text: KMFE 310453Z 13004KT 10SM CLR 22/20 A3008 RMK AO2 SLP184 T02220200
Loading
Personal Weather Stations






























Interactive Weather Map
Tropical Storm Tracking
New forecast layout! Learn more

10-Day Weather Forecast

Advertisements
Track Severe Weather on mobile